sensor_id;sensor_type;location;lat;lon;timestamp;pressure;altitude;pressure_sealevel;temperature;humidity
56241;BME280;42155;53.096;23.226;2023-03-14T00:01:11;98364.28;;;8.40;81.03
56241;BME280;42155;53.096;23.226;2023-03-14T00:03:12;98358.50;;;8.37;80.57
56241;BME280;42155;53.096;23.226;2023-03-14T00:05:12;98375.41;;;8.44;80.11
56241;BME280;42155;53.096;23.226;2023-03-14T00:07:13;98342.50;;;8.29;80.42
56241;BME280;42155;53.096;23.226;2023-03-14T00:09:14;98367.31;;;8.46;79.77
56241;BME280;42155;53.096;23.226;2023-03-14T00:11:16;98358.50;;;8.37;79.85
56241;BME280;42155;53.096;23.226;2023-03-14T00:13:17;98370.41;;;8.41;79.85
56241;BME280;42155;53.096;23.226;2023-03-14T00:15:18;98370.50;;;8.49;79.21
56241;BME280;42155;53.096;23.226;2023-03-14T00:17:18;98372.84;;;8.52;79.49
56241;BME280;42155;53.096;23.226;2023-03-14T00:19:18;98363.94;;;8.53;79.22
56241;BME280;42155;53.096;23.226;2023-03-14T00:21:19;98364.69;;;8.46;78.79
56241;BME280;42155;53.096;23.226;2023-03-14T00:23:19;98371.41;;;8.58;79.29
56241;BME280;42155;53.096;23.226;2023-03-14T00:25:19;98350.06;;;8.51;79.30
56241;BME280;42155;53.096;23.226;2023-03-14T00:27:19;98352.00;;;8.49;78.70
56241;BME280;42155;53.096;23.226;2023-03-14T00:29:20;98350.06;;;8.51;78.60
56241;BME280;42155;53.096;23.226;2023-03-14T00:31:20;98334.47;;;8.48;78.50
56241;BME280;42155;53.096;23.226;2023-03-14T00:33:21;98337.78;;;8.50;78.24
56241;BME280;42155;53.096;23.226;2023-03-14T00:35:22;98358.03;;;8.59;77.74
56241;BME280;42155;53.096;23.226;2023-03-14T00:37:22;98344.97;;;8.58;77.88
56241;BME280;42155;53.096;23.226;2023-03-14T00:39:23;98339.53;;;8.59;78.04
56241;BME280;42155;53.096;23.226;2023-03-14T00:41:23;98328.13;;;8.59;77.68
56241;BME280;42155;53.096;23.226;2023-03-14T00:43:24;98323.66;;;8.59;77.73
56241;BME280;42155;53.096;23.226;2023-03-14T00:45:24;98324.53;;;8.60;77.86
56241;BME280;42155;53.096;23.226;2023-03-14T00:47:25;98316.72;;;8.58;77.27
56241;BME280;42155;53.096;23.226;2023-03-14T00:49:25;98320.19;;;8.59;77.08
56241;BME280;42155;53.096;23.226;2023-03-14T00:51:25;98315.34;;;8.54;77.18
56241;BME280;42155;53.096;23.226;2023-03-14T00:53:26;98305.78;;;8.53;76.79
56241;BME280;42155;53.096;23.226;2023-03-14T00:55:26;98254.75;;;8.25;77.03
56241;BME280;42155;53.096;23.226;2023-03-14T00:57:26;98317.72;;;8.57;76.94
56241;BME280;42155;53.096;23.226;2023-03-14T00:59:27;98243.19;;;8.08;76.54
56241;BME280;42155;53.096;23.226;2023-03-14T01:01:27;98316.50;;;8.52;76.75
56241;BME280;42155;53.096;23.226;2023-03-14T01:03:27;98236.84;;;8.01;76.53
56241;BME280;42155;53.096;23.226;2023-03-14T01:05:28;98304.28;;;8.51;76.90
56241;BME280;42155;53.096;23.226;2023-03-14T01:07:28;98296.03;;;8.54;76.21
56241;BME280;42155;53.096;23.226;2023-03-14T01:09:29;98276.94;;;8.42;75.92
56241;BME280;42155;53.096;23.226;2023-03-14T01:11:32;98292.56;;;8.53;75.72
56241;BME280;42155;53.096;23.226;2023-03-14T01:13:32;98284.91;;;8.50;75.62
56241;BME280;42155;53.096;23.226;2023-03-14T01:15:33;98270.94;;;8.40;75.99
56241;BME280;42155;53.096;23.226;2023-03-14T01:17:34;98280.94;;;8.46;75.90
56241;BME280;42155;53.096;23.226;2023-03-14T01:19:34;98285.41;;;8.36;75.35
56241;BME280;42155;53.096;23.226;2023-03-14T01:21:35;98284.50;;;8.37;75.39
56241;BME280;42155;53.096;23.226;2023-03-14T01:23:35;98278.47;;;8.35;75.12
56241;BME280;42155;53.096;23.226;2023-03-14T01:25:41;98277.94;;;8.31;74.93
56241;BME280;42155;53.096;23.226;2023-03-14T01:27:41;98264.28;;;8.18;75.03
56241;BME280;42155;53.096;23.226;2023-03-14T01:29:42;98234.88;;;8.03;74.77
56241;BME280;42155;53.096;23.226;2023-03-14T01:31:42;98275.25;;;8.23;74.97
56241;BME280;42155;53.096;23.226;2023-03-14T01:33:43;98249.63;;;8.06;74.97
56241;BME280;42155;53.096;23.226;2023-03-14T01:35:43;98258.47;;;8.14;74.76
56241;BME280;42155;53.096;23.226;2023-03-14T01:37:43;98266.06;;;8.17;74.19
56241;BME280;42155;53.096;23.226;2023-03-14T01:39:44;98271.50;;;8.16;74.49
56241;BME280;42155;53.096;23.226;2023-03-14T01:41:46;98267.38;;;8.13;74.24
56241;BME280;42155;53.096;23.226;2023-03-14T01:43:47;98264.19;;;8.10;74.61
56241;BME280;42155;53.096;23.226;2023-03-14T01:48:06;98255.44;;;8.09;73.65
56241;BME280;42155;53.096;23.226;2023-03-14T01:50:08;98259.19;;;8.07;73.76
56241;BME280;42155;53.096;23.226;2023-03-14T01:52:13;98255.72;;;8.06;73.88
56241;BME280;42155;53.096;23.226;2023-03-14T01:54:32;98178.88;;;7.64;73.03
56241;BME280;42155;53.096;23.226;2023-03-14T01:56:35;98229.53;;;7.95;73.50
56241;BME280;42155;53.096;23.226;2023-03-14T01:58:37;98230.22;;;7.97;73.35
56241;BME280;42155;53.096;23.226;2023-03-14T02:00:40;98223.41;;;7.95;72.72
56241;BME280;42155;53.096;23.226;2023-03-14T02:02:45;98229.22;;;7.98;72.94
56241;BME280;42155;53.096;23.226;2023-03-14T02:04:46;98227.03;;;7.94;72.61
56241;BME280;42155;53.096;23.226;2023-03-14T02:06:57;98241.31;;;8.01;72.28
56241;BME280;42155;53.096;23.226;2023-03-14T02:08:59;98259.34;;;8.05;72.89
56241;BME280;42155;53.096;23.226;2023-03-14T02:11:00;98249.06;;;8.02;72.38
56241;BME280;42155;53.096;23.226;2023-03-14T02:13:03;98241.84;;;8.04;72.02
56241;BME280;42155;53.096;23.226;2023-03-14T02:15:04;98245.16;;;8.06;71.94
56241;BME280;42155;53.096;23.226;2023-03-14T02:17:05;98259.03;;;8.08;71.98
56241;BME280;42155;53.096;23.226;2023-03-14T02:19:06;98260.84;;;8.08;71.66
56241;BME280;42155;53.096;23.226;2023-03-14T02:21:24;98255.72;;;8.06;71.65
56241;BME280;42155;53.096;23.226;2023-03-14T02:23:48;98235.59;;;8.05;71.29
56241;BME280;42155;53.096;23.226;2023-03-14T02:25:55;98239.78;;;7.98;71.28
56241;BME280;42155;53.096;23.226;2023-03-14T02:27:58;98245.44;;;8.03;71.52
56241;BME280;42155;53.096;23.226;2023-03-14T02:30:35;98230.44;;;8.04;70.99
56241;BME280;42155;53.096;23.226;2023-03-14T02:32:37;98231.56;;;8.01;70.94
56241;BME280;42155;53.096;23.226;2023-03-14T02:34:40;98244.09;;;7.99;71.44
56241;BME280;42155;53.096;23.226;2023-03-14T02:36:42;98236.31;;;7.98;70.64
56241;BME280;42155;53.096;23.226;2023-03-14T02:38:52;98237.31;;;7.97;70.99
56241;BME280;42155;53.096;23.226;2023-03-14T02:40:53;98193.13;;;7.71;71.12
56241;BME280;42155;53.096;23.226;2023-03-14T02:42:53;98234.13;;;7.93;70.93
56241;BME280;42155;53.096;23.226;2023-03-14T02:45:01;98229.13;;;7.90;71.22
56241;BME280;42155;53.096;23.226;2023-03-14T02:47:24;98226.09;;;7.85;70.72
56241;BME280;42155;53.096;23.226;2023-03-14T02:49:27;98234.03;;;7.85;71.00
56241;BME280;42155;53.096;23.226;2023-03-14T02:51:29;98211.84;;;7.78;70.88
56241;BME280;42155;53.096;23.226;2023-03-14T02:53:32;98216.75;;;7.73;70.59
56241;BME280;42155;53.096;23.226;2023-03-14T02:55:33;98210.66;;;7.62;70.57
56241;BME280;42155;53.096;23.226;2023-03-14T02:57:33;98202.09;;;7.60;70.58
56241;BME280;42155;53.096;23.226;2023-03-14T02:59:33;98233.47;;;7.63;70.83
56241;BME280;42155;53.096;23.226;2023-03-14T03:01:34;98217.44;;;7.47;70.77
56241;BME280;42155;53.096;23.226;2023-03-14T03:03:34;98235.03;;;7.56;70.61
56241;BME280;42155;53.096;23.226;2023-03-14T03:05:35;98236.00;;;7.55;70.46
56241;BME280;42155;53.096;23.226;2023-03-14T03:07:35;98240.91;;;7.50;70.12
56241;BME280;42155;53.096;23.226;2023-03-14T03:09:35;98238.25;;;7.50;70.13
56241;BME280;42155;53.096;23.226;2023-03-14T03:11:36;98242.16;;;7.46;70.38
56241;BME280;42155;53.096;23.226;2023-03-14T03:13:36;98230.81;;;7.36;70.31
56241;BME280;42155;53.096;23.226;2023-03-14T03:15:37;98237.47;;;7.40;70.14
56241;BME280;42155;53.096;23.226;2023-03-14T03:17:37;98232.75;;;7.34;69.89
56241;BME280;42155;53.096;23.226;2023-03-14T03:19:38;98229.19;;;7.35;70.09
56241;BME280;42155;53.096;23.226;2023-03-14T03:21:38;98209.75;;;7.26;70.11
56241;BME280;42155;53.096;23.226;2023-03-14T03:23:39;98229.72;;;7.29;70.50
56241;BME280;42155;53.096;23.226;2023-03-14T03:25:39;98218.53;;;7.17;69.98
56241;BME280;42155;53.096;23.226;2023-03-14T03:27:40;98242.25;;;7.27;70.09
56241;BME280;42155;53.096;23.226;2023-03-14T03:29:40;98238.09;;;7.24;69.91
56241;BME280;42155;53.096;23.226;2023-03-14T03:31:40;98233.63;;;7.25;69.94
56241;BME280;42155;53.096;23.226;2023-03-14T03:33:40;98215.75;;;7.19;69.61
56241;BME280;42155;53.096;23.226;2023-03-14T03:35:45;98220.03;;;7.20;69.84
56241;BME280;42155;53.096;23.226;2023-03-14T03:37:46;98211.19;;;7.11;69.70
56241;BME280;42155;53.096;23.226;2023-03-14T03:39:46;98195.78;;;7.06;70.02
56241;BME280;42155;53.096;23.226;2023-03-14T03:41:47;98208.13;;;7.15;69.83
56241;BME280;42155;53.096;23.226;2023-03-14T03:43:47;98209.25;;;7.13;69.80
56241;BME280;42155;53.096;23.226;2023-03-14T03:45:47;98204.53;;;7.07;69.80
56241;BME280;42155;53.096;23.226;2023-03-14T03:47:48;98204.53;;;7.07;69.08
56241;BME280;42155;53.096;23.226;2023-03-14T03:49:48;98208.16;;;7.06;69.10
56241;BME280;42155;53.096;23.226;2023-03-14T03:51:49;98204.28;;;7.00;69.52
56241;BME280;42155;53.096;23.226;2023-03-14T03:53:49;98184.94;;;6.82;69.29
56241;BME280;42155;53.096;23.226;2023-03-14T03:55:50;98199.03;;;7.00;69.14
56241;BME280;42155;53.096;23.226;2023-03-14T03:57:50;98205.41;;;6.98;68.90
56241;BME280;42155;53.096;23.226;2023-03-14T03:59:50;98174.97;;;6.76;69.25
56241;BME280;42155;53.096;23.226;2023-03-14T04:01:51;98210.44;;;6.91;69.39
56241;BME280;42155;53.096;23.226;2023-03-14T04:03:51;98203.78;;;6.87;69.16
56241;BME280;42155;53.096;23.226;2023-03-14T04:06:02;98193.94;;;6.89;69.34
56241;BME280;42155;53.096;23.226;2023-03-14T04:08:04;98191.56;;;6.86;69.24
56241;BME280;42155;53.096;23.226;2023-03-14T04:10:04;98191.84;;;6.83;68.80
56241;BME280;42155;53.096;23.226;2023-03-14T04:12:05;98149.72;;;6.63;68.83
56241;BME280;42155;53.096;23.226;2023-03-14T04:14:05;98151.13;;;6.68;68.70
56241;BME280;42155;53.096;23.226;2023-03-14T04:16:14;98140.31;;;6.61;68.96
56241;BME280;42155;53.096;23.226;2023-03-14T04:18:15;98159.03;;;6.68;69.12
56241;BME280;42155;53.096;23.226;2023-03-14T04:20:15;98066.38;;;6.16;68.93
56241;BME280;42155;53.096;23.226;2023-03-14T04:22:16;98157.75;;;6.72;68.87
56241;BME280;42155;53.096;23.226;2023-03-14T04:24:16;98168.00;;;6.75;68.67
56241;BME280;42155;53.096;23.226;2023-03-14T04:26:17;98164.00;;;6.71;68.66
56241;BME280;42155;53.096;23.226;2023-03-14T04:28:17;98176.88;;;6.74;68.68
56241;BME280;42155;53.096;23.226;2023-03-14T04:30:18;98153.63;;;6.59;68.79
56241;BME280;42155;53.096;23.226;2023-03-14T04:32:18;98193.00;;;6.71;68.97
56241;BME280;42155;53.096;23.226;2023-03-14T04:34:18;98174.28;;;6.64;68.85
56241;BME280;42155;53.096;23.226;2023-03-14T04:36:19;98201.88;;;6.70;68.75
56241;BME280;42155;53.096;23.226;2023-03-14T04:38:19;98172.91;;;6.50;68.83
56241;BME280;42155;53.096;23.226;2023-03-14T04:40:20;98203.00;;;6.67;68.81
56241;BME280;42155;53.096;23.226;2023-03-14T04:42:20;98192.19;;;6.60;68.12
56241;BME280;42155;53.096;23.226;2023-03-14T04:44:20;98214.66;;;6.64;68.44
56241;BME280;42155;53.096;23.226;2023-03-14T04:46:21;98206.47;;;6.68;68.08
56241;BME280;42155;53.096;23.226;2023-03-14T04:48:22;98169.88;;;6.45;68.38
56241;BME280;42155;53.096;23.226;2023-03-14T04:50:22;98219.06;;;6.74;68.35
56241;BME280;42155;53.096;23.226;2023-03-14T04:52:22;98197.47;;;6.70;67.81
56241;BME280;42155;53.096;23.226;2023-03-14T04:54:23;98206.00;;;6.82;68.03
56241;BME280;42155;53.096;23.226;2023-03-14T04:56:23;98124.97;;;6.37;67.97
56241;BME280;42155;53.096;23.226;2023-03-14T04:58:23;98184.53;;;6.77;67.77
56241;BME280;42155;53.096;23.226;2023-03-14T05:00:24;98193.22;;;6.87;67.60
56241;BME280;42155;53.096;23.226;2023-03-14T05:02:24;98209.84;;;6.97;67.45
56241;BME280;42155;53.096;23.226;2023-03-14T05:04:24;98197.91;;;7.03;67.00
56241;BME280;42155;53.096;23.226;2023-03-14T05:06:25;98206.22;;;7.08;67.15
56241;BME280;42155;53.096;23.226;2023-03-14T05:08:25;98214.66;;;7.11;66.98
56241;BME280;42155;53.096;23.226;2023-03-14T05:10:26;98198.44;;;7.06;66.50
56241;BME280;42155;53.096;23.226;2023-03-14T05:12:26;98198.00;;;7.11;66.30
56241;BME280;42155;53.096;23.226;2023-03-14T05:14:26;98190.78;;;7.13;66.38
56241;BME280;42155;53.096;23.226;2023-03-14T05:16:27;98207.34;;;7.33;65.77
56241;BME280;42155;53.096;23.226;2023-03-14T05:18:27;98197.50;;;7.35;66.17
56241;BME280;42155;53.096;23.226;2023-03-14T05:20:27;98209.41;;;7.39;66.22
56241;BME280;42155;53.096;23.226;2023-03-14T05:22:28;98207.47;;;7.41;65.43
56241;BME280;42155;53.096;23.226;2023-03-14T05:24:28;98211.91;;;7.40;65.95
56241;BME280;42155;53.096;23.226;2023-03-14T05:26:28;98204.72;;;7.33;65.90
56241;BME280;42155;53.096;23.226;2023-03-14T05:28:29;98216.09;;;7.33;66.06
56241;BME280;42155;53.096;23.226;2023-03-14T05:30:29;98203.94;;;7.23;66.26
56241;BME280;42155;53.096;23.226;2023-03-14T05:32:30;98221.97;;;7.27;66.08
56241;BME280;42155;53.096;23.226;2023-03-14T05:34:30;98190.03;;;7.21;65.98
56241;BME280;42155;53.096;23.226;2023-03-14T05:36:30;98209.88;;;7.25;66.13
56241;BME280;42155;53.096;23.226;2023-03-14T05:38:31;98209.22;;;7.23;65.95
56241;BME280;42155;53.096;23.226;2023-03-14T05:40:31;98202.28;;;7.22;65.71
56241;BME280;42155;53.096;23.226;2023-03-14T05:42:32;98175.00;;;7.03;65.55
56241;BME280;42155;53.096;23.226;2023-03-14T05:44:33;98193.66;;;7.20;65.84
56241;BME280;42155;53.096;23.226;2023-03-14T05:46:33;98188.06;;;7.32;65.65
56241;BME280;42155;53.096;23.226;2023-03-14T05:48:33;98191.63;;;7.41;65.59
56241;BME280;42155;53.096;23.226;2023-03-14T05:50:34;98177.56;;;7.50;65.00
56241;BME280;42155;53.096;23.226;2023-03-14T05:52:34;98184.38;;;7.71;65.08
56241;BME280;42155;53.096;23.226;2023-03-14T05:54:35;98173.91;;;7.97;64.11
56241;BME280;42155;53.096;23.226;2023-03-14T05:56:35;98193.31;;;8.41;63.31
56241;BME280;42155;53.096;23.226;2023-03-14T05:58:35;98204.81;;;8.76;62.45
56241;BME280;42155;53.096;23.226;2023-03-14T06:00:36;98201.66;;;8.98;61.97
56241;BME280;42155;53.096;23.226;2023-03-14T06:02:36;98203.03;;;9.10;61.86
56241;BME280;42155;53.096;23.226;2023-03-14T06:04:36;98208.97;;;9.04;62.11
56241;BME280;42155;53.096;23.226;2023-03-14T06:06:37;98173.38;;;8.73;62.00
56241;BME280;42155;53.096;23.226;2023-03-14T06:08:37;98207.81;;;8.81;61.96
56241;BME280;42155;53.096;23.226;2023-03-14T06:10:37;98190.03;;;8.65;62.34
56241;BME280;42155;53.096;23.226;2023-03-14T06:12:38;98209.69;;;8.62;62.34
56241;BME280;42155;53.096;23.226;2023-03-14T06:14:38;98197.00;;;8.48;62.82
56241;BME280;42155;53.096;23.226;2023-03-14T06:16:38;98205.94;;;8.47;63.09
56241;BME280;42155;53.096;23.226;2023-03-14T06:18:39;98204.94;;;8.48;63.31
56241;BME280;42155;53.096;23.226;2023-03-14T06:20:39;98202.59;;;8.45;62.95
56241;BME280;42155;53.096;23.226;2023-03-14T06:22:40;98202.38;;;8.38;62.70
56241;BME280;42155;53.096;23.226;2023-03-14T06:24:40;98194.06;;;8.33;63.44
56241;BME280;42155;53.096;23.226;2023-03-14T06:26:40;98185.13;;;8.34;63.01
56241;BME280;42155;53.096;23.226;2023-03-14T06:28:41;98175.41;;;8.35;63.26
56241;BME280;42155;53.096;23.226;2023-03-14T06:30:41;98170.03;;;8.27;63.23
56241;BME280;42155;53.096;23.226;2023-03-14T06:32:41;98156.44;;;8.22;63.25
56241;BME280;42155;53.096;23.226;2023-03-14T06:34:42;98165.97;;;8.32;63.09
56241;BME280;42155;53.096;23.226;2023-03-14T06:36:42;98165.13;;;8.32;63.32
56241;BME280;42155;53.096;23.226;2023-03-14T06:38:42;98159.00;;;8.31;63.53
56241;BME280;42155;53.096;23.226;2023-03-14T06:40:43;98156.88;;;8.35;62.63
56241;BME280;42155;53.096;23.226;2023-03-14T06:42:44;98140.66;;;8.30;62.93
56241;BME280;42155;53.096;23.226;2023-03-14T06:44:44;98153.66;;;8.41;63.22
56241;BME280;42155;53.096;23.226;2023-03-14T06:46:44;98163.09;;;8.44;63.16
56241;BME280;42155;53.096;23.226;2023-03-14T06:48:45;98154.34;;;8.43;62.77
56241;BME280;42155;53.096;23.226;2023-03-14T06:50:45;98150.09;;;8.50;63.10
56241;BME280;42155;53.096;23.226;2023-03-14T06:52:45;98147.16;;;8.53;62.68
56241;BME280;42155;53.096;23.226;2023-03-14T06:54:46;98070.88;;;8.14;62.79
56241;BME280;42155;53.096;23.226;2023-03-14T06:56:46;98140.28;;;8.68;62.96
56241;BME280;42155;53.096;23.226;2023-03-14T06:58:46;98138.16;;;8.72;62.62
56241;BME280;42155;53.096;23.226;2023-03-14T07:00:47;98106.78;;;8.43;62.14
56241;BME280;42155;53.096;23.226;2023-03-14T07:02:47;98140.00;;;8.72;62.50
56241;BME280;42155;53.096;23.226;2023-03-14T07:04:47;98132.41;;;8.77;62.34
56241;BME280;42155;53.096;23.226;2023-03-14T07:06:48;98130.75;;;8.76;62.25
56241;BME280;42155;53.096;23.226;2023-03-14T07:08:48;98124.66;;;8.75;62.26
56241;BME280;42155;53.096;23.226;2023-03-14T07:10:48;98106.09;;;8.67;62.27
56241;BME280;42155;53.096;23.226;2023-03-14T07:12:48;98109.50;;;8.59;62.32
56241;BME280;42155;53.096;23.226;2023-03-14T07:14:49;98123.28;;;8.71;62.59
56241;BME280;42155;53.096;23.226;2023-03-14T07:16:49;98118.31;;;8.68;62.64
56241;BME280;42155;53.096;23.226;2023-03-14T07:18:49;98125.78;;;8.73;62.34
56241;BME280;42155;53.096;23.226;2023-03-14T07:20:50;98058.28;;;8.34;62.17
56241;BME280;42155;53.096;23.226;2023-03-14T07:22:50;98127.81;;;8.79;62.10
56241;BME280;42155;53.096;23.226;2023-03-14T07:24:51;98126.00;;;8.79;62.14
56241;BME280;42155;53.096;23.226;2023-03-14T07:26:51;98115.25;;;8.81;62.04
56241;BME280;42155;53.096;23.226;2023-03-14T07:28:52;98121.59;;;8.88;61.77
56241;BME280;42155;53.096;23.226;2023-03-14T07:30:54;98122.25;;;8.90;62.06
56241;BME280;42155;53.096;23.226;2023-03-14T07:32:54;98065.28;;;8.70;61.55
56241;BME280;42155;53.096;23.226;2023-03-14T07:34:54;98092.16;;;8.91;61.49
56241;BME280;42155;53.096;23.226;2023-03-14T07:36:55;98061.22;;;8.91;61.37
56241;BME280;42155;53.096;23.226;2023-03-14T07:38:55;98075.53;;;9.15;61.59
56241;BME280;42155;53.096;23.226;2023-03-14T07:41:00;98069.75;;;9.19;61.44
56241;BME280;42155;53.096;23.226;2023-03-14T07:43:00;98025.91;;;9.09;61.30
56241;BME280;42155;53.096;23.226;2023-03-14T07:45:01;98057.38;;;9.28;60.87
56241;BME280;42155;53.096;23.226;2023-03-14T07:47:01;98086.41;;;9.54;61.06
56241;BME280;42155;53.096;23.226;2023-03-14T07:49:01;98083.78;;;9.62;60.67
56241;BME280;42155;53.096;23.226;2023-03-14T07:51:02;98093.69;;;9.68;60.72
56241;BME280;42155;53.096;23.226;2023-03-14T07:53:02;98075.50;;;9.74;60.79
56241;BME280;42155;53.096;23.226;2023-03-14T07:55:03;98014.22;;;9.36;60.61
56241;BME280;42155;53.096;23.226;2023-03-14T07:57:03;98071.22;;;9.81;60.47
56241;BME280;42155;53.096;23.226;2023-03-14T07:59:03;98067.56;;;9.82;60.14
56241;BME280;42155;53.096;23.226;2023-03-14T08:01:04;98066.56;;;9.83;59.96
56241;BME280;42155;53.096;23.226;2023-03-14T08:03:04;98051.16;;;9.86;60.18
56241;BME280;42155;53.096;23.226;2023-03-14T08:05:05;98034.59;;;10.09;59.92
56241;BME280;42155;53.096;23.226;2023-03-14T08:07:06;98047.16;;;10.39;59.32
56241;BME280;42155;53.096;23.226;2023-03-14T08:09:06;98030.69;;;10.68;58.70
56241;BME280;42155;53.096;23.226;2023-03-14T08:11:07;98051.03;;;11.15;57.58
56241;BME280;42155;53.096;23.226;2023-03-14T08:13:09;98060.16;;;11.44;57.54
56241;BME280;42155;53.096;23.226;2023-03-14T08:15:10;98041.16;;;11.55;56.45
56241;BME280;42155;53.096;23.226;2023-03-14T08:17:10;98080.47;;;11.91;56.06
56241;BME280;42155;53.096;23.226;2023-03-14T08:19:11;98086.50;;;12.08;55.85
56241;BME280;42155;53.096;23.226;2023-03-14T08:21:11;98090.81;;;12.23;55.70
56241;BME280;42155;53.096;23.226;2023-03-14T08:23:11;98085.66;;;12.45;54.93
56241;BME280;42155;53.096;23.226;2023-03-14T08:25:12;98075.22;;;12.73;54.21
56241;BME280;42155;53.096;23.226;2023-03-14T08:27:12;98084.03;;;12.88;54.06
56241;BME280;42155;53.096;23.226;2023-03-14T08:29:13;98070.69;;;13.03;53.63
56241;BME280;42155;53.096;23.226;2023-03-14T08:31:13;98078.06;;;13.01;53.33
56241;BME280;42155;53.096;23.226;2023-03-14T08:33:13;98085.50;;;12.91;53.57
56241;BME280;42155;53.096;23.226;2023-03-14T08:35:14;98088.81;;;12.78;53.83
56241;BME280;42155;53.096;23.226;2023-03-14T08:37:15;98078.63;;;12.67;53.96
56241;BME280;42155;53.096;23.226;2023-03-14T08:39:15;98083.91;;;12.52;54.13
56241;BME280;42155;53.096;23.226;2023-03-14T08:41:15;98080.31;;;12.30;54.92
56241;BME280;42155;53.096;23.226;2023-03-14T08:43:16;98082.38;;;12.20;55.00
56241;BME280;42155;53.096;23.226;2023-03-14T08:45:16;98070.28;;;12.17;54.87
56241;BME280;42155;53.096;23.226;2023-03-14T08:47:17;98075.97;;;12.29;54.65
56241;BME280;42155;53.096;23.226;2023-03-14T08:49:17;98068.88;;;12.44;54.48
56241;BME280;42155;53.096;23.226;2023-03-14T08:51:18;98066.13;;;12.67;54.16
56241;BME280;42155;53.096;23.226;2023-03-14T08:53:18;98055.41;;;12.90;54.13
56241;BME280;42155;53.096;23.226;2023-03-14T08:55:19;98044.97;;;13.10;53.23
56241;BME280;42155;53.096;23.226;2023-03-14T08:57:19;98038.47;;;13.28;52.97
56241;BME280;42155;53.096;23.226;2023-03-14T08:59:19;98014.19;;;13.37;52.51
56241;BME280;42155;53.096;23.226;2023-03-14T09:01:20;97997.22;;;13.45;51.77
56241;BME280;42155;53.096;23.226;2023-03-14T09:03:20;98007.41;;;13.56;51.81
56241;BME280;42155;53.096;23.226;2023-03-14T09:05:20;98014.38;;;13.79;51.46
56241;BME280;42155;53.096;23.226;2023-03-14T09:07:21;98014.25;;;13.87;51.18
56241;BME280;42155;53.096;23.226;2023-03-14T09:09:21;97943.69;;;13.61;51.72
56241;BME280;42155;53.096;23.226;2023-03-14T09:11:22;98012.44;;;14.15;51.60
56241;BME280;42155;53.096;23.226;2023-03-14T09:13:22;97999.09;;;14.15;51.39
56241;BME280;42155;53.096;23.226;2023-03-14T09:15:22;98001.50;;;14.10;51.48
56241;BME280;42155;53.096;23.226;2023-03-14T09:17:23;97999.59;;;14.04;51.38
56241;BME280;42155;53.096;23.226;2023-03-14T09:19:23;98011.88;;;13.98;51.59
56241;BME280;42155;53.096;23.226;2023-03-14T09:21:23;97991.25;;;13.86;51.63
56241;BME280;42155;53.096;23.226;2023-03-14T09:23:24;98008.63;;;14.03;51.50
56241;BME280;42155;53.096;23.226;2023-03-14T09:25:24;97989.91;;;13.96;51.73
56241;BME280;42155;53.096;23.226;2023-03-14T09:27:25;97976.16;;;13.93;51.43
56241;BME280;42155;53.096;23.226;2023-03-14T09:29:25;98007.09;;;14.15;51.54
56241;BME280;42155;53.096;23.226;2023-03-14T09:31:25;98011.84;;;14.20;51.62
56241;BME280;42155;53.096;23.226;2023-03-14T09:33:26;98002.00;;;14.20;51.15
56241;BME280;42155;53.096;23.226;2023-03-14T09:35:26;97973.75;;;14.05;51.07
56241;BME280;42155;53.096;23.226;2023-03-14T09:37:27;97999.19;;;14.29;51.66
56241;BME280;42155;53.096;23.226;2023-03-14T09:39:27;98001.44;;;14.32;51.10
56241;BME280;42155;53.096;23.226;2023-03-14T09:41:31;98005.75;;;14.33;50.70
56241;BME280;42155;53.096;23.226;2023-03-14T09:43:34;98015.44;;;14.34;50.72
56241;BME280;42155;53.096;23.226;2023-03-14T09:45:38;98003.72;;;14.35;50.43
56241;BME280;42155;53.096;23.226;2023-03-14T09:47:39;97984.59;;;14.24;50.72
56241;BME280;42155;53.096;23.226;2023-03-14T09:49:40;97993.06;;;14.35;50.82
56241;BME280;42155;53.096;23.226;2023-03-14T09:51:41;98011.88;;;14.55;50.47
56241;BME280;42155;53.096;23.226;2023-03-14T09:53:46;98011.88;;;14.55;49.83
56241;BME280;42155;53.096;23.226;2023-03-14T09:55:49;98008.16;;;14.49;49.60
56241;BME280;42155;53.096;23.226;2023-03-14T09:57:58;98022.13;;;14.51;49.75
56241;BME280;42155;53.096;23.226;2023-03-14T10:00:06;98005.28;;;14.50;49.63
56241;BME280;42155;53.096;23.226;2023-03-14T10:02:16;97998.59;;;14.61;50.01
56241;BME280;42155;53.096;23.226;2023-03-14T10:04:21;98010.94;;;14.69;49.87
56241;BME280;42155;53.096;23.226;2023-03-14T10:06:26;97981.19;;;14.78;49.99
56241;BME280;42155;53.096;23.226;2023-03-14T10:08:26;97987.84;;;14.89;50.73
56241;BME280;42155;53.096;23.226;2023-03-14T10:10:27;97990.34;;;15.04;50.48
56241;BME280;42155;53.096;23.226;2023-03-14T10:12:32;97986.47;;;15.13;50.05
56241;BME280;42155;53.096;23.226;2023-03-14T10:14:35;97975.19;;;15.18;50.30
56241;BME280;42155;53.096;23.226;2023-03-14T10:16:41;97974.81;;;15.27;49.96
56241;BME280;42155;53.096;23.226;2023-03-14T10:18:45;97964.75;;;15.36;50.17
56241;BME280;42155;53.096;23.226;2023-03-14T10:20:48;97930.59;;;15.18;49.62
56241;BME280;42155;53.096;23.226;2023-03-14T10:22:50;97961.06;;;15.44;49.28
56241;BME280;42155;53.096;23.226;2023-03-14T10:25:05;97961.50;;;15.54;49.07
56241;BME280;42155;53.096;23.226;2023-03-14T10:27:18;97948.94;;;15.61;49.02
56241;BME280;42155;53.096;23.226;2023-03-14T10:29:19;97932.47;;;15.51;48.78
56241;BME280;42155;53.096;23.226;2023-03-14T10:31:24;97948.72;;;15.56;48.35
56241;BME280;42155;53.096;23.226;2023-03-14T10:33:28;97934.13;;;15.52;48.66
56241;BME280;42155;53.096;23.226;2023-03-14T10:35:33;97939.91;;;15.49;48.38
56241;BME280;42155;53.096;23.226;2023-03-14T10:37:34;97956.75;;;15.56;48.45
56241;BME280;42155;53.096;23.226;2023-03-14T10:39:41;97948.56;;;15.64;48.30
56241;BME280;42155;53.096;23.226;2023-03-14T10:41:47;97945.69;;;15.72;48.68
56241;BME280;42155;53.096;23.226;2023-03-14T10:43:51;97939.09;;;15.88;48.84